createdAt,value
2018-12-03T00:02:04.701Z,71.00
2018-12-03T00:10:19.532Z,55.17
2018-12-03T00:12:23.164Z,51.07
2018-12-03T00:14:26.925Z,56.80
2018-12-03T00:16:30.601Z,65.23
2018-12-03T00:18:34.240Z,54.53
2018-12-03T00:20:37.876Z,50.10
2018-12-03T00:22:42.580Z,52.13
2018-12-03T00:24:46.260Z,48.37
2018-12-03T00:26:49.875Z,50.17
2018-12-03T00:28:54.232Z,51.57
2018-12-03T00:30:58.695Z,56.00
2018-12-03T00:33:02.281Z,51.60
2018-12-03T00:35:08.540Z,57.70
2018-12-03T00:37:12.080Z,49.77
2018-12-03T00:39:15.721Z,38.00
2018-12-03T00:41:19.344Z,47.07
2018-12-03T00:43:23.085Z,36.80
2018-12-03T00:45:26.704Z,38.60
2018-12-03T00:47:30.288Z,31.07
2018-12-03T00:49:33.864Z,30.37
2018-12-03T00:51:37.488Z,28.37
2018-12-03T00:53:41.108Z,26.60
2018-12-03T00:55:44.652Z,21.03
2018-12-03T00:57:48.225Z,25.33
2018-12-03T00:59:52.431Z,20.40
2018-12-03T01:01:56.047Z,22.67
2018-12-03T01:03:59.728Z,16.70
2018-12-03T01:06:03.396Z,16.50
2018-12-03T01:08:07.085Z,16.60
2018-12-03T01:10:10.741Z,14.07
2018-12-03T01:12:14.496Z,10.63
2018-12-03T01:14:18.157Z,15.73
2018-12-03T01:16:21.752Z,16.63
2018-12-03T01:18:25.360Z,13.90
2018-12-03T01:20:29.029Z,21.10
2018-12-03T01:22:32.656Z,14.70
2018-12-03T01:27:43.529Z,10.70
2018-12-03T01:29:47.104Z,16.80
2018-12-03T01:31:50.730Z,14.43
2018-12-03T01:33:54.392Z,15.97
2018-12-03T01:35:58.231Z,14.00
2018-12-03T01:38:01.937Z,11.77
2018-12-03T01:40:12.365Z,11.00
2018-12-03T01:42:18.099Z,10.37
2018-12-03T01:44:21.667Z,9.60
2018-12-03T01:46:25.351Z,14.27
2018-12-03T01:48:29.021Z,10.13
2018-12-03T01:50:32.957Z,12.00
2018-12-03T01:52:37.161Z,8.40
2018-12-03T01:54:41.354Z,12.10
2018-12-03T01:56:45.764Z,9.37
2018-12-03T01:58:49.400Z,7.87
2018-12-03T02:00:53.764Z,7.80
2018-12-03T02:02:57.344Z,8.80
2018-12-03T02:05:01.580Z,7.27
2018-12-03T02:07:05.304Z,11.60
2018-12-03T02:09:09.860Z,10.07
2018-12-03T02:11:13.509Z,11.30
2018-12-03T02:13:17.072Z,7.70
2018-12-03T02:15:21.398Z,7.27
2018-12-03T02:17:24.986Z,15.00
2018-12-03T02:19:28.592Z,9.50
2018-12-03T02:21:32.807Z,9.23
2018-12-03T02:23:36.379Z,11.40
2018-12-03T02:25:40.544Z,7.80
2018-12-03T02:27:44.264Z,8.50
2018-12-03T02:29:48.553Z,10.17
2018-12-03T02:31:52.724Z,8.77
2018-12-03T02:33:56.297Z,11.23
2018-12-03T02:35:59.998Z,9.70
2018-12-03T02:38:03.572Z,10.90
2018-12-03T02:40:11.215Z,8.93
2018-12-03T02:42:14.776Z,9.03
2018-12-03T02:44:18.363Z,11.17
2018-12-03T02:46:21.921Z,10.60
2018-12-03T02:48:25.579Z,7.80
2018-12-03T02:50:29.140Z,8.97
2018-12-03T02:52:32.765Z,5.87
2018-12-03T02:54:36.464Z,9.13
2018-12-03T02:57:25.719Z,6.63
2018-12-03T02:59:41.578Z,7.53
2018-12-03T03:01:59.053Z,7.40
2018-12-03T03:04:12.033Z,12.93
2018-12-03T03:06:26.249Z,10.93
2018-12-03T03:08:43.155Z,10.67
2018-12-03T03:13:27.854Z,10.23
2018-12-03T03:15:40.371Z,12.53
2018-12-03T03:17:59.018Z,10.23
2018-12-03T03:20:19.748Z,10.10
2018-12-03T03:22:39.613Z,10.30
2018-12-03T03:24:59.886Z,12.90
2018-12-03T03:27:14.989Z,9.60
2018-12-03T03:31:32.784Z,8.70
2018-12-03T03:33:50.396Z,11.70
2018-12-03T03:38:29.977Z,12.17
2018-12-03T03:40:46.600Z,13.63
2018-12-03T03:42:54.314Z,13.60
2018-12-03T03:45:10.533Z,14.60
2018-12-03T03:47:27.265Z,13.20
2018-12-03T03:49:39.756Z,14.10
2018-12-03T03:51:51.021Z,12.00
2018-12-03T03:53:59.917Z,18.40
2018-12-03T03:56:19.795Z,17.07
2018-12-03T03:58:34.252Z,11.47
2018-12-03T04:00:41.774Z,16.17
2018-12-03T04:02:54.159Z,14.13
2018-12-03T04:05:11.406Z,14.77
2018-12-03T04:07:23.435Z,15.23
2018-12-03T04:09:33.966Z,20.30
2018-12-03T04:11:46.154Z,18.67
2018-12-03T04:13:57.162Z,18.10
2018-12-03T04:16:14.469Z,14.33
2018-12-03T04:18:27.273Z,16.00
2018-12-03T04:20:45.166Z,17.07
2018-12-03T04:22:58.851Z,14.90
2018-12-03T04:25:16.269Z,17.60
2018-12-03T04:27:36.628Z,16.50
2018-12-03T04:29:55.913Z,21.87
2018-12-03T04:32:15.079Z,21.03
2018-12-03T04:34:33.259Z,20.87
2018-12-03T04:36:52.386Z,14.40
2018-12-03T04:39:05.082Z,15.60
2018-12-03T04:41:13.424Z,16.73
2018-12-03T04:43:31.712Z,18.03
2018-12-03T04:45:53.823Z,19.80
2018-12-03T04:50:36.459Z,20.37
2018-12-03T05:02:20.667Z,22.10
2018-12-03T05:04:29.683Z,20.57
2018-12-03T05:18:08.974Z,31.80
2018-12-03T05:44:32.386Z,87.67
2018-12-03T07:11:04.985Z,56.77
2018-12-03T07:13:15.846Z,54.73
2018-12-03T07:15:28.178Z,61.53
2018-12-03T07:17:35.105Z,63.87
2018-12-03T07:21:48.119Z,64.40
2018-12-03T07:24:02.424Z,52.67
2018-12-03T07:26:13.966Z,60.00
2018-12-03T07:28:26.838Z,58.00
2018-12-03T07:30:38.613Z,53.00
2018-12-03T07:32:49.332Z,45.80
2018-12-03T07:37:14.546Z,43.90
2018-12-03T07:39:32.273Z,46.20
2018-12-03T07:41:52.593Z,43.97
2018-12-03T07:44:06.478Z,37.37
2018-12-03T07:46:15.181Z,40.27
2018-12-03T07:48:23.905Z,41.77
2018-12-03T07:50:34.414Z,44.50
2018-12-03T07:52:45.889Z,40.90
2018-12-03T07:54:58.105Z,41.00
2018-12-03T07:57:11.910Z,40.87
2018-12-03T07:59:21.698Z,37.40
2018-12-03T08:01:33.454Z,42.87
2018-12-03T08:03:41.327Z,37.47
2018-12-03T08:05:48.235Z,43.50
2018-12-03T08:07:54.586Z,33.67
2018-12-03T08:10:00.082Z,38.73
2018-12-03T08:12:09.895Z,37.87
2018-12-03T08:14:21.881Z,40.47
2018-12-03T08:16:32.706Z,38.80
2018-12-03T08:18:39.091Z,39.30
2018-12-03T08:21:30.227Z,38.77
2018-12-03T08:23:42.542Z,44.33
2018-12-03T08:25:50.837Z,42.97
2018-12-03T08:28:00.334Z,48.70
2018-12-03T08:30:10.895Z,40.97
2018-12-03T08:32:17.080Z,44.47
2018-12-03T08:36:35.182Z,47.10
2018-12-03T08:38:44.161Z,48.80
2018-12-03T08:40:51.642Z,53.27
2018-12-03T08:45:15.322Z,54.10
2018-12-03T08:47:26.010Z,55.57
2018-12-03T08:49:38.438Z,48.77
2018-12-03T08:51:57.045Z,53.90
2018-12-03T08:54:16.914Z,53.87
2018-12-03T08:56:28.660Z,52.20
2018-12-03T08:58:43.341Z,44.97
2018-12-03T09:00:50.492Z,51.60
2018-12-03T09:03:10.694Z,47.27
2018-12-03T09:05:24.218Z,43.60
2018-12-03T09:07:31.316Z,43.03
2018-12-03T09:09:53.234Z,48.00
2018-12-03T09:12:00.822Z,48.10
2018-12-03T09:14:09.235Z,48.37
2018-12-03T09:16:17.276Z,50.27
2018-12-03T09:18:29.806Z,53.50
2018-12-03T09:20:36.173Z,48.40
2018-12-03T09:22:49.935Z,48.30
2018-12-03T09:24:55.346Z,46.33
2018-12-03T09:27:03.426Z,40.30
2018-12-03T09:29:09.423Z,41.70
2018-12-03T09:31:24.059Z,39.77
2018-12-03T09:33:41.623Z,41.50
2018-12-03T09:35:53.220Z,33.83
2018-12-03T09:37:57.725Z,39.20
2018-12-03T09:40:08.378Z,29.93
2018-12-03T09:42:25.514Z,32.93
2018-12-03T09:44:59.848Z,33.20
2018-12-03T09:47:38.866Z,35.47
2018-12-03T09:52:25.861Z,33.23
2018-12-03T09:54:36.337Z,27.43
2018-12-03T09:56:55.382Z,26.20
2018-12-03T09:59:10.963Z,28.30
2018-12-03T10:01:25.639Z,29.63
2018-12-03T10:03:41.107Z,23.27
2018-12-03T10:06:19.541Z,23.60
2018-12-03T10:11:00.473Z,27.90
2018-12-03T10:13:14.174Z,26.73
2018-12-03T10:15:32.014Z,31.13
2018-12-03T10:17:39.926Z,23.43
2018-12-03T10:19:52.469Z,30.63
2018-12-03T10:22:00.587Z,20.40
2018-12-03T10:24:15.505Z,18.07
2018-12-03T10:26:29.459Z,15.50
2018-12-03T10:28:38.994Z,13.87
2018-12-03T10:30:53.334Z,11.57
2018-12-03T10:33:04.815Z,12.23
2018-12-03T10:35:11.654Z,13.17
2018-12-03T10:37:18.067Z,12.30
2018-12-03T10:39:50.791Z,12.70
2018-12-03T10:44:08.882Z,16.17
2018-12-03T10:46:22.770Z,12.67
2018-12-03T10:48:34.671Z,19.93
2018-12-03T10:50:45.377Z,18.30
2018-12-03T10:55:07.402Z,23.27
2018-12-03T10:57:20.695Z,23.03
2018-12-03T10:59:38.254Z,24.07
2018-12-03T11:02:07.666Z,30.93
2018-12-03T11:04:19.614Z,27.50
2018-12-03T11:06:31.443Z,31.00
2018-12-03T11:08:40.466Z,24.00
2018-12-03T11:10:46.610Z,25.37
2018-12-03T11:12:54.547Z,23.73
2018-12-03T11:15:08.209Z,22.30
2018-12-03T11:17:17.874Z,23.00
2018-12-03T11:19:28.763Z,25.93
2018-12-03T11:21:41.159Z,24.53
2018-12-03T11:23:49.811Z,28.67
2018-12-03T11:26:00.211Z,21.10
2018-12-03T11:28:13.810Z,25.27
2018-12-03T11:30:23.821Z,25.73
2018-12-03T11:32:31.339Z,24.43
2018-12-03T11:58:46.194Z,20.03
2018-12-03T12:00:57.947Z,23.77
2018-12-03T12:03:14.430Z,22.57
2018-12-03T12:05:23.329Z,20.50
2018-12-03T12:07:29.329Z,27.97
2018-12-03T12:09:37.874Z,23.27
2018-12-03T12:11:44.068Z,23.70
2018-12-03T12:13:53.578Z,25.07
2018-12-03T12:16:08.570Z,19.83
2018-12-03T12:18:16.643Z,18.93
2018-12-03T12:20:23.969Z,19.77
2018-12-03T12:22:32.183Z,17.53
2018-12-03T12:24:40.202Z,20.93
2018-12-03T12:26:48.017Z,23.40
2018-12-03T12:28:57.307Z,17.60
2018-12-03T12:31:04.362Z,18.50
2018-12-03T12:33:09.814Z,16.73
2018-12-03T12:35:18.033Z,16.20
2018-12-03T12:37:26.838Z,19.60
2018-12-03T12:39:46.385Z,12.63
2018-12-03T12:41:59.958Z,12.80
2018-12-03T12:44:14.028Z,19.57
2018-12-03T12:46:27.471Z,16.83
2018-12-03T12:48:35.338Z,12.67
2018-12-03T12:50:43.866Z,17.13
2018-12-03T12:52:56.166Z,28.37
2018-12-03T12:55:03.481Z,16.57
2018-12-03T12:57:21.082Z,20.07
2018-12-03T12:59:28.329Z,23.47
2018-12-03T13:01:34.322Z,13.47
2018-12-03T13:03:40.325Z,26.43
2018-12-03T13:05:49.478Z,18.00
2018-12-03T13:08:01.492Z,19.13
2018-12-03T13:10:20.075Z,15.30
2018-12-03T13:12:26.398Z,19.67
2018-12-03T13:14:33.769Z,20.50
2018-12-03T13:16:42.454Z,19.23
2018-12-03T13:18:55.153Z,18.90
2018-12-03T13:21:12.030Z,17.20
2018-12-03T13:25:37.678Z,23.43
2018-12-03T13:27:49.586Z,18.37
2018-12-03T13:30:22.162Z,15.90
2018-12-03T13:32:27.570Z,19.10
2018-12-03T13:34:41.461Z,15.07
2018-12-03T13:36:56.814Z,16.57
2018-12-03T13:46:57.395Z,22.70
2018-12-03T13:49:17.364Z,15.10
2018-12-03T13:51:36.750Z,19.77
2018-12-03T13:53:52.051Z,17.60
2018-12-03T13:56:03.634Z,17.80
2018-12-03T13:58:27.191Z,19.70
2018-12-03T14:00:44.899Z,19.97
2018-12-03T14:03:12.910Z,16.73
2018-12-03T14:05:24.214Z,14.83
2018-12-03T14:09:48.624Z,20.53
2018-12-03T14:12:12.434Z,18.43
2018-12-03T14:15:05.629Z,19.20
2018-12-03T14:17:17.737Z,14.27
2018-12-03T14:19:31.666Z,18.30
2018-12-03T14:21:50.287Z,14.73
2018-12-03T14:24:05.100Z,16.23
2018-12-03T14:26:14.260Z,18.20
2018-12-03T14:28:30.861Z,16.87
2018-12-03T14:30:52.402Z,16.17
2018-12-03T14:35:13.002Z,22.90
2018-12-03T14:37:20.166Z,13.87
2018-12-03T14:39:29.710Z,19.10
2018-12-03T14:41:38.132Z,15.10
2018-12-03T14:43:48.798Z,18.10
2018-12-03T14:45:58.520Z,20.03
2018-12-03T14:50:36.078Z,18.43
2018-12-03T14:54:57.919Z,20.23
2018-12-03T14:57:11.082Z,19.67
2018-12-03T14:59:24.434Z,22.33
2018-12-03T15:01:48.320Z,23.10
2018-12-03T15:04:06.313Z,24.10
2018-12-03T15:08:18.417Z,23.83
2018-12-03T15:12:48.462Z,23.70
2018-12-03T15:15:06.964Z,22.80
2018-12-03T15:17:29.422Z,14.83
2018-12-03T15:19:44.890Z,21.43
2018-12-03T15:21:58.321Z,17.70
2018-12-03T15:40:10.574Z,27.37
2018-12-03T15:55:18.065Z,27.60
2018-12-03T16:08:45.264Z,29.60
2018-12-03T16:13:00.673Z,40.20
2018-12-03T16:15:15.673Z,17.57
2018-12-03T16:22:15.505Z,23.43
2018-12-03T16:27:00.902Z,27.27
2018-12-03T16:29:12.377Z,17.37
2018-12-03T16:31:24.823Z,25.80
2018-12-03T16:33:42.961Z,25.17
2018-12-03T16:35:56.045Z,28.00
2018-12-03T16:38:04.817Z,21.83
2018-12-03T16:40:14.205Z,31.40
2018-12-03T16:42:27.666Z,27.17
2018-12-03T16:44:46.275Z,25.20
2018-12-03T16:46:59.700Z,27.77
2018-12-03T16:49:11.327Z,24.93
2018-12-03T16:51:25.585Z,29.37
2018-12-03T16:53:40.097Z,25.27
2018-12-03T16:55:55.373Z,24.50
2018-12-03T17:00:07.241Z,30.40
2018-12-03T17:02:17.953Z,25.43
2018-12-03T17:06:33.762Z,24.53
2018-12-03T17:08:55.397Z,34.67
2018-12-03T17:11:15.730Z,13.47
2018-12-03T17:13:35.150Z,31.77
2018-12-03T17:15:47.741Z,26.33
2018-12-03T17:17:55.226Z,27.97
2018-12-03T17:20:14.106Z,25.57
2018-12-03T17:22:34.698Z,23.23
2018-12-03T17:24:50.002Z,24.43
2018-12-03T17:27:22.902Z,31.50
2018-12-03T17:29:40.412Z,29.23
2018-12-03T17:31:58.158Z,28.90
2018-12-03T17:34:12.622Z,22.57
2018-12-03T17:36:24.565Z,37.63
2018-12-03T17:38:47.218Z,28.00
2018-12-03T17:41:01.730Z,19.53
2018-12-03T17:43:12.906Z,26.93
2018-12-03T17:47:30.082Z,37.47
2018-12-03T17:49:37.770Z,33.80
2018-12-03T17:51:57.893Z,25.70
2018-12-03T17:54:22.835Z,20.57
2018-12-03T17:58:50.989Z,26.17
2018-12-03T18:00:58.993Z,29.80
2018-12-03T18:03:11.314Z,31.40
2018-12-03T18:05:21.070Z,28.80
2018-12-03T18:09:39.202Z,23.30
2018-12-03T18:12:05.002Z,34.27
2018-12-03T18:14:17.425Z,24.23
2018-12-03T18:16:39.194Z,29.10
2018-12-03T18:18:59.324Z,35.23
2018-12-03T18:21:09.457Z,26.47
2018-12-03T18:23:22.010Z,35.93
2018-12-03T18:25:54.025Z,31.93
2018-12-03T18:28:06.358Z,29.73
2018-12-03T18:30:28.931Z,30.20
2018-12-03T18:32:40.886Z,27.23
2018-12-03T18:34:59.726Z,30.80
2018-12-03T18:37:19.267Z,26.63
2018-12-03T18:39:40.839Z,37.87
2018-12-03T18:41:50.094Z,25.53
2018-12-03T18:46:01.006Z,27.67
2018-12-03T18:48:21.134Z,31.43
2018-12-03T18:50:39.322Z,27.10
2018-12-03T18:52:56.685Z,26.20
2018-12-03T18:55:12.366Z,27.13
2018-12-03T18:59:22.375Z,34.57
2018-12-03T19:01:32.718Z,23.33
2018-12-03T19:03:53.765Z,28.13
2018-12-03T19:06:21.205Z,21.43
2018-12-03T19:08:49.470Z,23.67
2018-12-03T19:11:01.837Z,25.40
2018-12-03T19:13:07.475Z,21.10
2018-12-03T19:15:20.841Z,26.33
2018-12-03T19:17:33.958Z,33.00
2018-12-03T19:19:47.346Z,31.73
2018-12-03T19:21:57.644Z,29.43
2018-12-03T19:24:11.515Z,29.13
2018-12-03T19:26:25.678Z,26.17
2018-12-03T19:30:42.009Z,37.57
2018-12-03T19:33:02.832Z,26.90
2018-12-03T19:35:23.795Z,32.17
2018-12-03T19:37:42.605Z,27.97
2018-12-03T19:40:31.537Z,31.47
2018-12-03T19:42:39.677Z,28.67
2018-12-03T19:45:05.400Z,25.73
2018-12-03T19:47:15.631Z,32.53
2018-12-03T19:49:32.239Z,30.87
2018-12-03T19:54:07.082Z,30.63
2018-12-03T19:56:19.034Z,27.10
2018-12-03T19:58:58.126Z,33.43
2018-12-03T20:01:11.833Z,26.77
2018-12-03T20:03:26.560Z,31.27
2018-12-03T20:05:44.893Z,27.87
2018-12-03T20:08:05.506Z,26.30
2018-12-03T20:10:20.617Z,30.67
2018-12-03T20:14:31.991Z,29.80
2018-12-03T20:17:17.805Z,30.93
2018-12-03T20:19:38.062Z,20.27
2018-12-03T20:21:52.986Z,26.50
2018-12-03T20:24:11.534Z,25.20
2018-12-03T20:27:02.513Z,24.80
2018-12-03T20:29:12.176Z,27.97
2018-12-03T20:32:16.370Z,24.10
2018-12-03T20:36:28.227Z,25.43
2018-12-03T20:38:57.566Z,21.27
2018-12-03T20:41:10.109Z,19.03
2018-12-03T20:43:46.681Z,28.17
2018-12-03T20:45:53.746Z,24.30
2018-12-03T20:48:07.150Z,21.93
2018-12-03T20:51:01.957Z,27.60
2018-12-03T20:53:12.411Z,21.50
2018-12-03T20:55:32.306Z,21.13
2018-12-03T20:57:50.738Z,17.23
2018-12-03T21:00:15.742Z,19.97
2018-12-03T21:02:31.210Z,23.30
2018-12-03T21:04:38.868Z,22.37
2018-12-03T21:06:49.752Z,25.50
2018-12-03T21:10:59.234Z,22.50
2018-12-03T21:13:14.954Z,25.67
2018-12-03T21:15:33.619Z,24.47
2018-12-03T21:17:47.277Z,26.80
2018-12-03T21:19:56.721Z,23.57
2018-12-03T21:22:16.884Z,20.10
2018-12-03T21:24:38.722Z,22.13
2018-12-03T21:26:51.790Z,27.13
2018-12-03T21:31:02.482Z,19.83
2018-12-03T21:33:23.054Z,23.20
2018-12-03T21:35:36.866Z,19.03
2018-12-03T21:37:46.418Z,23.90
2018-12-03T21:40:20.118Z,22.90
2018-12-03T21:42:37.042Z,18.50
2018-12-03T21:44:47.131Z,12.40
2018-12-03T21:46:53.940Z,18.80
2018-12-03T21:49:10.234Z,18.37
2018-12-03T21:51:23.154Z,14.30
2018-12-03T21:53:41.506Z,19.17
2018-12-03T21:55:54.389Z,21.43
2018-12-03T21:58:04.777Z,19.33
2018-12-03T22:02:24.189Z,14.90
2018-12-03T22:04:42.054Z,16.10
2018-12-03T22:06:55.403Z,16.80
2018-12-03T22:09:13.400Z,19.07
2018-12-03T22:11:32.342Z,21.83
2018-12-03T22:13:40.324Z,20.97
2018-12-03T22:16:01.426Z,16.17
2018-12-03T22:18:18.905Z,15.57
2018-12-03T22:20:35.499Z,19.43
2018-12-03T22:22:51.225Z,18.73
2018-12-03T22:25:02.154Z,15.00
2018-12-03T22:27:24.518Z,14.10
2018-12-03T22:29:35.882Z,15.63
2018-12-03T22:31:43.402Z,11.87
2018-12-03T22:34:04.942Z,13.30
2018-12-03T22:36:19.622Z,25.03
2018-12-03T22:38:29.425Z,12.03
2018-12-03T22:40:44.582Z,14.53
2018-12-03T22:43:01.322Z,14.23
2018-12-03T22:45:31.341Z,19.20
2018-12-03T22:49:43.982Z,17.17
2018-12-03T22:51:56.526Z,21.23
2018-12-03T22:54:04.794Z,13.87
2018-12-03T22:56:23.741Z,13.23
2018-12-03T22:58:35.786Z,13.93
2018-12-03T23:00:40.398Z,15.03
2018-12-03T23:02:50.385Z,16.20
2018-12-03T23:05:02.908Z,13.87
2018-12-03T23:07:22.563Z,16.40
2018-12-03T23:09:35.790Z,15.87
2018-12-03T23:11:44.745Z,13.43
2018-12-03T23:14:04.785Z,18.27
2018-12-03T23:16:17.724Z,13.20
2018-12-03T23:18:22.682Z,11.07
2018-12-03T23:20:37.369Z,11.70
2018-12-03T23:22:52.501Z,15.23
2018-12-03T23:27:16.233Z,14.50
2018-12-03T23:29:28.588Z,11.80
2018-12-03T23:31:38.710Z,12.73
2018-12-03T23:33:54.882Z,12.87
2018-12-03T23:36:02.414Z,11.07
2018-12-03T23:38:16.653Z,14.20
2018-12-03T23:40:33.234Z,16.93
2018-12-03T23:42:48.398Z,14.20
2018-12-03T23:45:01.297Z,8.30
2018-12-03T23:47:16.142Z,8.13
2018-12-03T23:49:28.205Z,12.47
2018-12-03T23:51:45.958Z,13.87
2018-12-03T23:53:59.085Z,10.93
2018-12-03T23:56:06.542Z,16.63
2018-12-03T23:58:19.022Z,12.10
